createdAt,value
2023-04-03T00:00:43.698Z,8.68
2023-04-03T00:03:10.014Z,8.64
2023-04-03T00:05:36.316Z,8.68
2023-04-03T00:08:02.644Z,8.62
2023-04-03T00:10:28.945Z,8.73
2023-04-03T00:12:55.241Z,8.75
2023-04-03T00:15:21.573Z,8.57
2023-04-03T00:17:47.891Z,8.56
2023-04-03T00:20:14.338Z,8.37
2023-04-03T00:22:40.676Z,8.41
2023-04-03T00:25:06.984Z,8.35
2023-04-03T00:27:33.273Z,8.43
2023-04-03T00:29:59.619Z,8.51
2023-04-03T00:32:25.930Z,8.55
2023-04-03T00:34:52.240Z,8.63
2023-04-03T00:37:18.564Z,8.48
2023-04-03T00:39:44.863Z,8.50
2023-04-03T00:42:11.147Z,8.54
2023-04-03T00:44:37.444Z,8.62
2023-04-03T00:47:03.747Z,8.54
2023-04-03T00:49:30.044Z,8.61
2023-04-03T00:51:56.337Z,8.63
2023-04-03T00:54:22.622Z,8.57
2023-04-03T00:56:48.937Z,8.34
2023-04-03T00:59:15.268Z,8.16
2023-04-03T01:01:41.590Z,8.22
2023-04-03T01:04:07.939Z,8.17
2023-04-03T01:06:34.253Z,8.01
2023-04-03T01:09:00.533Z,8.02
2023-04-03T01:11:26.815Z,7.82
2023-04-03T01:13:53.142Z,8.05
2023-04-03T01:16:19.485Z,8.21
2023-04-03T01:18:45.847Z,8.36
2023-04-03T01:21:12.148Z,8.20
2023-04-03T01:23:38.438Z,8.38
2023-04-03T01:26:04.720Z,8.53
2023-04-03T01:28:31.030Z,8.59
2023-04-03T01:30:57.320Z,8.45
2023-04-03T01:33:23.613Z,8.64
2023-04-03T01:35:50.032Z,8.69
2023-04-03T01:38:16.338Z,8.65
2023-04-03T01:40:42.641Z,8.61
2023-04-03T01:43:08.964Z,8.64
2023-04-03T01:45:35.298Z,8.55
2023-04-03T01:48:01.650Z,8.44
2023-04-03T01:50:27.987Z,8.12
2023-04-03T01:52:54.270Z,8.13
2023-04-03T01:55:20.574Z,8.12
2023-04-03T01:57:46.896Z,8.14
2023-04-03T02:00:13.192Z,8.06
2023-04-03T02:02:39.500Z,7.82
2023-04-03T02:05:05.801Z,7.76
2023-04-03T02:07:32.093Z,7.44
2023-04-03T02:09:58.381Z,7.23
2023-04-03T02:12:24.688Z,7.22
2023-04-03T02:14:50.980Z,7.11
2023-04-03T02:17:17.322Z,7.25
2023-04-03T02:19:43.650Z,7.21
2023-04-03T02:22:09.946Z,7.09
2023-04-03T02:24:36.247Z,7.03
2023-04-03T02:27:02.554Z,7.16
2023-04-03T02:29:28.841Z,7.27
2023-04-03T02:31:55.149Z,7.25
2023-04-03T02:34:21.449Z,7.33
2023-04-03T02:36:47.735Z,7.39
2023-04-03T02:39:14.040Z,7.57
2023-04-03T02:41:43.471Z,7.59
2023-04-03T02:44:09.772Z,7.68
2023-04-03T02:46:36.104Z,7.38
2023-04-03T02:49:02.436Z,7.26
2023-04-03T02:51:28.720Z,7.28
2023-04-03T02:53:55.014Z,7.19
2023-04-03T02:56:21.342Z,7.15
2023-04-03T02:58:47.633Z,7.16
2023-04-03T03:01:13.956Z,7.20
2023-04-03T03:03:40.335Z,7.37
2023-04-03T03:06:06.632Z,7.43
2023-04-03T03:08:33.078Z,7.81
2023-04-03T03:10:59.397Z,7.87
2023-04-03T03:13:25.700Z,7.83
2023-04-03T03:15:52.040Z,8.08
2023-04-03T03:18:18.364Z,8.07
2023-04-03T03:20:44.656Z,7.69
2023-04-03T03:23:11.410Z,7.91
2023-04-03T03:25:38.353Z,7.79
2023-04-03T03:28:04.987Z,7.72
2023-04-03T03:30:31.286Z,7.31
2023-04-03T03:32:57.629Z,7.35
2023-04-03T03:35:23.942Z,7.35
2023-04-03T03:37:50.238Z,7.24
2023-04-03T03:40:16.542Z,7.28
2023-04-03T03:42:44.502Z,7.14
2023-04-03T03:45:10.794Z,7.21
2023-04-03T03:47:37.181Z,7.02
2023-04-03T03:50:03.501Z,6.98
2023-04-03T03:52:29.804Z,6.80
2023-04-03T03:54:56.253Z,6.90
2023-04-03T03:57:22.592Z,6.85
2023-04-03T03:59:48.889Z,6.90
2023-04-03T04:02:15.257Z,6.93
2023-04-03T04:04:41.565Z,6.99
2023-04-03T04:07:07.859Z,6.83
2023-04-03T04:09:34.174Z,6.74
2023-04-03T04:12:00.474Z,6.91
2023-04-03T04:14:26.772Z,6.69
2023-04-03T04:16:53.136Z,6.63
2023-04-03T04:19:19.458Z,6.65
2023-04-03T04:21:45.792Z,6.56
2023-04-03T04:24:12.100Z,6.80
2023-04-03T04:26:38.391Z,6.56
2023-04-03T04:29:04.689Z,6.63
2023-04-03T04:31:31.192Z,6.56
2023-04-03T04:33:57.571Z,6.57
2023-04-03T04:36:23.956Z,6.57
2023-04-03T04:38:50.315Z,6.50
2023-04-03T04:41:16.595Z,6.33
2023-04-03T04:43:42.891Z,6.38
2023-04-03T04:46:09.289Z,6.26
2023-04-03T04:48:35.729Z,6.32
2023-04-03T04:51:02.033Z,6.26
2023-04-03T04:53:28.359Z,6.22
2023-04-03T04:55:54.651Z,6.27
2023-04-03T04:58:20.935Z,6.21
2023-04-03T05:00:47.256Z,6.06
2023-04-03T05:03:13.566Z,6.04
2023-04-03T05:05:40.019Z,6.06
2023-04-03T05:08:06.561Z,5.99
2023-04-03T05:10:32.863Z,5.99
2023-04-03T05:12:59.161Z,5.88
2023-04-03T05:15:25.489Z,5.95
2023-04-03T05:17:51.863Z,5.82
2023-04-03T05:20:18.175Z,5.91
2023-04-03T05:22:44.509Z,5.96
2023-04-03T05:25:10.797Z,5.96
2023-04-03T05:27:37.103Z,5.84
2023-04-03T05:30:03.472Z,5.86
2023-04-03T05:32:29.816Z,5.74
2023-04-03T05:34:56.118Z,5.79
2023-04-03T05:37:22.433Z,5.92
2023-04-03T05:39:49.018Z,5.89
2023-04-03T05:42:15.313Z,5.73
2023-04-03T05:44:41.629Z,5.74
2023-04-03T05:47:07.933Z,5.85
2023-04-03T05:49:34.242Z,5.80
2023-04-03T05:52:00.572Z,5.91
2023-04-03T05:54:26.875Z,5.93
2023-04-03T05:56:53.447Z,5.79
2023-04-03T05:59:19.819Z,5.75
2023-04-03T06:01:46.141Z,5.98
2023-04-03T06:04:12.580Z,5.81
2023-04-03T06:06:39.001Z,5.73
2023-04-03T06:09:05.296Z,5.75
2023-04-03T06:11:31.603Z,5.47
2023-04-03T06:13:57.926Z,5.39
2023-04-03T06:16:24.232Z,5.41
2023-04-03T06:18:50.544Z,5.44
2023-04-03T06:21:16.854Z,5.25
2023-04-03T06:23:43.150Z,5.26
2023-04-03T06:26:09.452Z,5.23
2023-04-03T06:28:35.778Z,5.32
2023-04-03T06:31:02.102Z,5.14
2023-04-03T06:33:28.411Z,5.25
2023-04-03T06:35:54.780Z,5.19
2023-04-03T06:38:21.088Z,5.28
2023-04-03T06:40:47.502Z,5.12
2023-04-03T06:43:13.801Z,5.10
2023-04-03T06:45:40.297Z,5.15
2023-04-03T06:48:06.772Z,5.06
2023-04-03T06:50:33.148Z,5.12
2023-04-03T06:52:59.466Z,5.09
2023-04-03T06:55:25.771Z,5.01
2023-04-03T06:57:52.097Z,5.08
2023-04-03T07:00:18.404Z,5.02
2023-04-03T07:02:44.785Z,5.01
2023-04-03T07:05:11.207Z,4.99
2023-04-03T07:07:37.561Z,5.03
2023-04-03T07:10:03.873Z,5.11
2023-04-03T07:12:30.196Z,5.15
2023-04-03T07:14:56.609Z,5.18
2023-04-03T07:17:22.924Z,5.13
2023-04-03T07:19:49.244Z,5.20
2023-04-03T07:22:15.534Z,5.04
2023-04-03T07:24:41.834Z,5.08
2023-04-03T07:27:08.159Z,5.05
2023-04-03T07:29:34.456Z,5.17
2023-04-03T07:32:00.876Z,5.16
2023-04-03T07:34:27.302Z,5.25
2023-04-03T07:36:53.607Z,5.21
2023-04-03T07:39:19.916Z,5.20
2023-04-03T07:41:46.220Z,5.24
2023-04-03T07:44:12.524Z,5.20
2023-04-03T07:46:38.880Z,5.37
2023-04-03T07:49:05.202Z,5.18
2023-04-03T07:51:31.498Z,5.21
2023-04-03T07:53:57.801Z,5.08
2023-04-03T07:56:24.125Z,4.97
2023-04-03T07:58:50.570Z,5.09
2023-04-03T08:01:16.859Z,4.90
2023-04-03T08:03:43.310Z,5.06
2023-04-03T08:06:15.617Z,4.90
2023-04-03T08:08:42.585Z,4.87
2023-04-03T08:11:08.945Z,4.87
2023-04-03T08:13:35.239Z,4.86
2023-04-03T08:16:01.542Z,4.82
2023-04-03T08:18:27.958Z,4.88
2023-04-03T08:20:54.281Z,4.84
2023-04-03T08:23:20.576Z,4.97
2023-04-03T08:25:46.901Z,4.90
2023-04-03T08:28:13.214Z,4.95
2023-04-03T08:30:39.573Z,5.14
2023-04-03T08:33:05.953Z,5.04
2023-04-03T08:35:32.315Z,5.14
2023-04-03T08:37:58.684Z,4.94
2023-04-03T08:40:25.062Z,5.04
2023-04-03T08:42:51.427Z,5.19
2023-04-03T08:45:17.939Z,5.17
2023-04-03T08:47:44.473Z,5.12
2023-04-03T08:50:11.070Z,5.15
2023-04-03T08:52:37.378Z,5.17
2023-04-03T08:55:03.706Z,5.39
2023-04-03T08:57:30.080Z,5.16
2023-04-03T08:59:56.432Z,5.14
2023-04-03T09:02:22.793Z,5.24
2023-04-03T09:04:49.126Z,5.11
2023-04-03T09:07:15.424Z,4.89
2023-04-03T09:09:41.753Z,4.92
2023-04-03T09:12:08.053Z,4.85
2023-04-03T09:14:34.358Z,4.99
2023-04-03T09:17:00.724Z,5.20
2023-04-03T09:19:27.035Z,5.15
2023-04-03T09:21:53.436Z,5.14
2023-04-03T09:24:19.761Z,5.08
2023-04-03T09:26:46.053Z,5.16
2023-04-03T09:29:12.360Z,5.06
2023-04-03T09:31:40.050Z,4.98
2023-04-03T09:34:07.230Z,5.33
2023-04-03T09:36:33.591Z,5.17
2023-04-03T09:38:59.913Z,5.32
2023-04-03T09:41:26.218Z,5.32
2023-04-03T09:43:52.532Z,5.20
2023-04-03T09:46:20.651Z,5.12
2023-04-03T09:48:48.168Z,5.25
2023-04-03T09:51:16.303Z,5.45
2023-04-03T09:53:42.621Z,5.28
2023-04-03T09:56:08.911Z,5.55
2023-04-03T09:58:46.774Z,5.56
2023-04-03T10:01:15.813Z,5.37
2023-04-03T10:03:42.160Z,5.59
2023-04-03T10:06:11.473Z,5.33
2023-04-03T10:08:37.800Z,5.19
2023-04-03T10:11:04.184Z,5.10
2023-04-03T10:13:32.301Z,5.18
2023-04-03T10:15:58.732Z,5.17
2023-04-03T10:18:25.251Z,5.15
2023-04-03T10:20:51.612Z,5.44
2023-04-03T10:23:17.975Z,5.57
2023-04-03T10:25:44.261Z,5.69
2023-04-03T10:28:10.549Z,5.35
2023-04-03T10:30:37.051Z,5.19
2023-04-03T10:33:03.765Z,5.36
2023-04-03T10:35:30.166Z,5.51
2023-04-03T10:37:56.529Z,5.46
2023-04-03T10:40:22.828Z,5.56
2023-04-03T10:42:49.123Z,5.34
2023-04-03T10:45:15.439Z,5.25
2023-04-03T10:47:41.751Z,5.12
2023-04-03T10:50:08.076Z,5.13
2023-04-03T10:52:34.406Z,5.12
2023-04-03T10:55:00.725Z,5.15
2023-04-03T10:57:27.119Z,5.13
2023-04-03T10:59:53.436Z,5.04
2023-04-03T11:02:19.756Z,5.09
2023-04-03T11:04:46.100Z,5.29
2023-04-03T11:07:12.411Z,5.30
2023-04-03T11:09:38.747Z,5.60
2023-04-03T11:12:05.040Z,5.53
2023-04-03T11:14:31.365Z,5.60
2023-04-03T11:16:57.680Z,5.31
2023-04-03T11:19:24.000Z,5.37
2023-04-03T11:21:50.313Z,5.63
2023-04-03T11:24:16.592Z,5.82
2023-04-03T11:26:42.892Z,5.89
2023-04-03T11:29:09.280Z,6.16
2023-04-03T11:31:35.962Z,5.95
2023-04-03T11:34:02.280Z,6.21
2023-04-03T11:36:33.095Z,6.20
2023-04-03T11:39:02.660Z,6.44
2023-04-03T11:41:29.009Z,6.84
2023-04-03T11:43:55.364Z,6.91
2023-04-03T11:46:21.695Z,6.83
2023-04-03T11:48:48.021Z,6.70
2023-04-03T11:51:14.309Z,6.72
2023-04-03T11:53:40.597Z,6.80
2023-04-03T11:56:06.917Z,7.25
2023-04-03T11:58:33.212Z,7.15
2023-04-03T12:00:59.500Z,6.83
2023-04-03T12:03:25.849Z,7.18
2023-04-03T12:05:52.213Z,7.37
2023-04-03T12:08:18.508Z,7.30
2023-04-03T12:10:44.828Z,7.17
2023-04-03T12:13:11.134Z,7.59
2023-04-03T12:15:37.616Z,6.98
2023-04-03T12:18:04.268Z,6.89
2023-04-03T12:20:30.590Z,6.96
2023-04-03T12:22:56.882Z,6.57
2023-04-03T12:25:23.199Z,7.03
2023-04-03T12:27:49.495Z,6.80
2023-04-03T12:30:15.786Z,6.57
2023-04-03T12:32:42.278Z,6.86
2023-04-03T12:35:08.611Z,6.92
2023-04-03T12:37:34.909Z,7.18
2023-04-03T12:40:01.247Z,7.33
2023-04-03T12:42:27.534Z,7.24
2023-04-03T12:44:53.825Z,7.23
2023-04-03T12:47:20.164Z,7.23
2023-04-03T12:49:46.466Z,6.97
2023-04-03T12:52:12.762Z,7.00
2023-04-03T12:54:39.094Z,7.04
2023-04-03T12:57:05.421Z,7.10
2023-04-03T12:59:31.743Z,6.87
2023-04-03T13:01:58.177Z,7.11
2023-04-03T13:04:24.526Z,6.89
2023-04-03T13:06:50.834Z,6.58
2023-04-03T13:09:17.158Z,6.82
2023-04-03T13:11:43.455Z,7.02
2023-04-03T13:14:09.752Z,7.08
2023-04-03T13:16:36.145Z,6.66
2023-04-03T13:19:02.716Z,6.71
2023-04-03T13:21:29.474Z,6.62
2023-04-03T13:24:07.171Z,6.60
2023-04-03T13:26:40.802Z,6.37
2023-04-03T13:29:08.328Z,6.79
2023-04-03T13:31:35.782Z,6.45
2023-04-03T13:34:02.091Z,6.76
2023-04-03T13:36:28.446Z,6.49
2023-04-03T13:38:54.769Z,6.39
2023-04-03T13:41:21.069Z,6.53
2023-04-03T13:43:47.378Z,6.60
2023-04-03T13:46:13.704Z,6.59
2023-04-03T13:48:40.024Z,6.52
2023-04-03T13:51:06.334Z,6.34
2023-04-03T13:53:32.635Z,6.26
2023-04-03T13:55:58.936Z,6.41
2023-04-03T13:58:25.260Z,6.30
2023-04-03T14:00:51.632Z,6.28
2023-04-03T14:03:17.953Z,6.22
2023-04-03T14:05:44.261Z,6.21
2023-04-03T14:08:10.564Z,6.17
2023-04-03T14:10:36.847Z,6.29
2023-04-03T14:13:03.168Z,6.21
2023-04-03T14:15:29.478Z,6.23
2023-04-03T14:17:55.775Z,6.23
2023-04-03T14:20:22.105Z,6.18
2023-04-03T14:22:48.398Z,6.13
2023-04-03T14:25:14.710Z,6.40
2023-04-03T14:27:41.033Z,6.38
2023-04-03T14:30:07.336Z,6.20
2023-04-03T14:32:33.634Z,6.41
2023-04-03T14:34:59.968Z,6.02
2023-04-03T14:37:26.264Z,6.28
2023-04-03T14:39:52.577Z,6.25
2023-04-03T14:42:18.982Z,6.12
2023-04-03T14:44:45.286Z,6.29
2023-04-03T14:47:14.303Z,6.14
2023-04-03T14:49:46.446Z,6.25
2023-04-03T14:52:12.743Z,6.36
2023-04-03T14:54:39.037Z,6.08
2023-04-03T14:57:05.392Z,6.04
2023-04-03T14:59:31.724Z,6.02
2023-04-03T15:01:58.101Z,5.89
2023-04-03T15:04:24.627Z,5.96
2023-04-03T15:06:51.022Z,6.00
2023-04-03T15:09:17.312Z,5.89
2023-04-03T15:11:43.735Z,5.90
2023-04-03T15:14:10.028Z,5.83
2023-04-03T15:16:36.357Z,5.77
2023-04-03T15:19:02.723Z,5.76
2023-04-03T15:21:29.021Z,5.92
2023-04-03T15:23:55.317Z,5.91
2023-04-03T15:26:21.646Z,5.74
2023-04-03T15:28:47.951Z,5.81
2023-04-03T15:31:14.265Z,5.80
2023-04-03T15:33:40.598Z,5.81
2023-04-03T15:36:07.927Z,5.81
2023-04-03T15:38:43.817Z,5.80
2023-04-03T15:41:10.107Z,5.78
2023-04-03T15:43:36.402Z,5.65
2023-04-03T15:46:02.959Z,5.79
2023-04-03T15:48:29.328Z,5.73
2023-04-03T15:50:57.119Z,5.76
2023-04-03T15:53:24.050Z,5.63
2023-04-03T15:55:50.365Z,5.63
2023-04-03T15:58:16.704Z,5.60
2023-04-03T16:00:43.066Z,5.62
2023-04-03T16:03:09.520Z,5.48
2023-04-03T16:05:35.926Z,5.51
2023-04-03T16:08:02.381Z,5.49
2023-04-03T16:10:28.694Z,5.57
2023-04-03T16:12:54.986Z,5.62
2023-04-03T16:15:21.309Z,5.59
2023-04-03T16:17:47.659Z,5.52
2023-04-03T16:20:13.970Z,5.61
2023-04-03T16:22:40.301Z,5.69
2023-04-03T16:25:07.734Z,5.64
2023-04-03T16:27:34.025Z,5.63
2023-04-03T16:30:00.379Z,5.72
2023-04-03T16:32:26.712Z,5.65
2023-04-03T16:34:53.009Z,5.75
2023-04-03T16:37:19.435Z,5.56
2023-04-03T16:39:45.736Z,5.70
2023-04-03T16:42:12.019Z,5.60
2023-04-03T16:44:38.319Z,5.64
2023-04-03T16:47:04.658Z,5.59
2023-04-03T16:49:31.096Z,5.54
2023-04-03T16:51:57.449Z,5.57
2023-04-03T16:54:23.720Z,5.65
2023-04-03T16:56:50.007Z,5.68
2023-04-03T16:59:16.359Z,5.77
2023-04-03T17:01:42.657Z,5.51
2023-04-03T17:04:09.028Z,5.51
2023-04-03T17:06:35.360Z,5.50
2023-04-03T17:09:01.656Z,5.51
2023-04-03T17:11:27.981Z,5.49
2023-04-03T17:13:54.339Z,5.43
2023-04-03T17:16:20.644Z,5.39
2023-04-03T17:18:46.959Z,5.39
2023-04-03T17:21:13.279Z,5.42
2023-04-03T17:23:39.605Z,5.36
2023-04-03T17:26:05.932Z,5.42
2023-04-03T17:28:32.280Z,5.47
2023-04-03T17:30:58.608Z,5.52
2023-04-03T17:33:24.904Z,5.48
2023-04-03T17:35:51.227Z,5.45
2023-04-03T17:38:17.568Z,5.48
2023-04-03T17:40:44.200Z,5.45
2023-04-03T17:43:11.422Z,5.45
2023-04-03T17:45:37.985Z,5.42
2023-04-03T17:48:04.476Z,5.38
2023-04-03T17:50:30.839Z,5.44
2023-04-03T17:52:57.231Z,5.44
2023-04-03T17:55:23.519Z,5.42
2023-04-03T17:57:49.885Z,5.37
2023-04-03T18:00:16.179Z,5.41
2023-04-03T18:02:42.543Z,5.37
2023-04-03T18:05:08.911Z,5.32
2023-04-03T18:07:35.203Z,5.29
2023-04-03T18:10:01.493Z,5.33
2023-04-03T18:12:27.804Z,5.39
2023-04-03T18:14:54.105Z,5.26
2023-04-03T18:17:20.397Z,5.30
2023-04-03T18:19:46.719Z,5.36
2023-04-03T18:22:13.009Z,5.24
2023-04-03T18:24:39.314Z,5.25
2023-04-03T18:27:05.635Z,5.34
2023-04-03T18:29:31.941Z,5.33
2023-04-03T18:31:58.374Z,5.37
2023-04-03T18:34:27.819Z,5.31
2023-04-03T18:36:54.115Z,5.26
2023-04-03T18:39:20.849Z,5.27
2023-04-03T18:41:47.996Z,5.38
2023-04-03T18:44:14.296Z,5.33
2023-04-03T18:46:40.622Z,5.36
2023-04-03T18:49:06.956Z,5.35
2023-04-03T18:51:33.253Z,5.25
2023-04-03T18:53:59.591Z,5.23
2023-04-03T18:56:25.918Z,5.25
2023-04-03T18:58:52.336Z,5.33
2023-04-03T19:01:18.650Z,5.29
2023-04-03T19:03:45.091Z,5.12
2023-04-03T19:06:11.426Z,5.12
2023-04-03T19:08:37.733Z,5.01
2023-04-03T19:11:04.062Z,5.06
2023-04-03T19:13:30.592Z,4.92
2023-04-03T19:15:56.886Z,4.98
2023-04-03T19:18:23.223Z,4.98
2023-04-03T19:20:49.513Z,4.94
2023-04-03T19:23:16.506Z,4.95
2023-04-03T19:25:43.975Z,5.04
2023-04-03T19:28:10.496Z,4.86
2023-04-03T19:30:36.823Z,4.94
2023-04-03T19:33:03.232Z,4.93
2023-04-03T19:35:29.592Z,4.95
2023-04-03T19:37:56.024Z,4.94
2023-04-03T19:40:22.343Z,4.93
2023-04-03T19:42:48.643Z,4.90
2023-04-03T19:45:14.983Z,4.87
2023-04-03T19:47:41.352Z,4.92
2023-04-03T19:50:07.733Z,4.84
2023-04-03T19:52:34.035Z,4.87
2023-04-03T19:55:00.353Z,4.80
2023-04-03T19:57:26.661Z,4.66
2023-04-03T19:59:52.970Z,4.66
2023-04-03T20:02:19.295Z,4.70
2023-04-03T20:04:45.596Z,4.62
2023-04-03T20:07:11.924Z,4.60
2023-04-03T20:09:38.284Z,4.51
2023-04-03T20:12:04.575Z,4.49
2023-04-03T20:14:30.877Z,4.43
2023-04-03T20:16:57.199Z,4.35
2023-04-03T20:19:23.491Z,4.38
2023-04-03T20:21:49.776Z,4.39
2023-04-03T20:24:17.296Z,4.38
2023-04-03T20:26:44.104Z,4.35
2023-04-03T20:29:10.388Z,4.32
2023-04-03T20:31:36.764Z,4.29
2023-04-03T20:34:03.151Z,4.13
2023-04-03T20:36:29.523Z,4.17
2023-04-03T20:38:55.976Z,4.14
2023-04-03T20:41:22.282Z,4.04
2023-04-03T20:43:48.578Z,4.05
2023-04-03T20:46:14.939Z,4.07
2023-04-03T20:48:41.259Z,4.03
2023-04-03T20:51:07.597Z,4.01
2023-04-03T20:53:33.925Z,3.95
2023-04-03T20:56:00.612Z,3.97
2023-04-03T20:58:27.336Z,4.00
2023-04-03T21:00:53.781Z,4.02
2023-04-03T21:03:20.162Z,3.90
2023-04-03T21:05:46.583Z,3.88
2023-04-03T21:08:12.909Z,3.80
2023-04-03T21:10:39.386Z,3.84
2023-04-03T21:13:05.898Z,3.80
2023-04-03T21:15:32.253Z,3.94
2023-04-03T21:17:58.586Z,4.14
2023-04-03T21:20:24.925Z,4.08
2023-04-03T21:22:51.249Z,4.07
2023-04-03T21:25:17.552Z,4.11
2023-04-03T21:27:43.847Z,4.06
2023-04-03T21:30:10.176Z,4.16
2023-04-03T21:32:36.578Z,4.07
2023-04-03T21:35:02.911Z,4.06
2023-04-03T21:37:29.234Z,4.02
2023-04-03T21:39:55.534Z,3.93
2023-04-03T21:42:21.837Z,3.92
2023-04-03T21:44:48.162Z,3.98
2023-04-03T21:47:14.462Z,3.98
2023-04-03T21:49:40.766Z,3.83
2023-04-03T21:52:07.083Z,3.86
2023-04-03T21:54:33.400Z,3.97
2023-04-03T21:56:59.690Z,3.95
2023-04-03T21:59:26.203Z,3.95
2023-04-03T22:01:52.741Z,3.86
2023-04-03T22:04:19.085Z,3.87
2023-04-03T22:06:45.398Z,3.77
2023-04-03T22:09:11.700Z,3.80
2023-04-03T22:11:38.004Z,3.73
2023-04-03T22:14:04.324Z,3.75
2023-04-03T22:16:30.647Z,3.71
2023-04-03T22:18:56.970Z,3.72
2023-04-03T22:21:23.354Z,3.68
2023-04-03T22:23:49.656Z,3.72
2023-04-03T22:26:15.949Z,3.67
2023-04-03T22:28:42.270Z,3.65
2023-04-03T22:31:08.683Z,3.68
2023-04-03T22:33:35.010Z,3.62
2023-04-03T22:36:01.371Z,3.60
2023-04-03T22:38:27.720Z,3.61
2023-04-03T22:40:54.020Z,3.65
2023-04-03T22:43:20.350Z,3.65
2023-04-03T22:45:46.642Z,3.63
2023-04-03T22:48:12.936Z,3.52
2023-04-03T22:50:39.534Z,3.57
2023-04-03T22:53:06.154Z,3.53
2023-04-03T22:55:32.479Z,3.50
2023-04-03T22:57:58.794Z,3.51
2023-04-03T23:00:25.196Z,3.49
2023-04-03T23:02:51.529Z,3.45
2023-04-03T23:05:17.873Z,3.53
2023-04-03T23:07:44.175Z,3.60
2023-04-03T23:10:10.463Z,3.41
2023-04-03T23:12:36.782Z,3.54
2023-04-03T23:15:03.083Z,3.44
2023-04-03T23:17:29.417Z,3.40
2023-04-03T23:19:55.795Z,3.39
2023-04-03T23:22:22.097Z,3.41
2023-04-03T23:24:48.399Z,3.33
2023-04-03T23:27:14.843Z,3.47
2023-04-03T23:29:41.152Z,3.35
2023-04-03T23:32:07.465Z,3.33
2023-04-03T23:34:33.811Z,3.44
2023-04-03T23:37:00.113Z,3.36
2023-04-03T23:39:26.417Z,3.28
2023-04-03T23:41:52.745Z,3.39
2023-04-03T23:44:19.043Z,3.12
2023-04-03T23:46:45.378Z,3.19
2023-04-03T23:49:11.703Z,3.16
2023-04-03T23:51:37.993Z,3.18
2023-04-03T23:54:04.335Z,3.16
2023-04-03T23:56:30.671Z,3.11
2023-04-03T23:58:56.982Z,3.23
